Latest Weather Observations for Beaudesert AWS

IDQ60901

Issued at 10:11 pm EST Sunday 25 September 2016 (issued every 10 minutes, with the page automatically refreshed every 10 minutes)

About weather observations | Map of Brisbane area stations | Latest observations for Brisbane area | Other Formats
Station Details ID: 040983 Name: BEAUDESERT DRUMLEY STREET Lat: -27.97 Lon: 152.99 Height: 47.81 m
Data from the previous 72 hours. | See also: Recent months at Beaudesert AWS
Date/Time
EST
Temp
°C
App
Temp
°C
Dew
Point
°C
Rel
Hum
%
Delta-T
°C
Wind Press
QNH
hPa
Press
MSL
hPa
Rain since
9am
mm
Dir  Spd
km/h
Gust
km/h
Spd
kts
Gust
kts
25/10:00pm 16.9 16.2 8.6 58 4.3 NNE 2 4 1 2 1010.8 1010.7 0.0
25/09:30pm 17.4 16.2 8.0 54 4.8 SW 4 7 2 4 1010.6 1010.5 0.0
25/09:00pm 19.4 17.6 8.1 48 5.8 W 7 13 4 7 1010.4 1010.3 0.0
25/08:30pm 19.9 17.3 7.9 46 6.2 WSW 11 20 6 11 1010.1 1010.0 0.0
25/08:00pm 20.3 18.1 8.0 45 6.4 W 9 13 5 7 1009.6 1009.5 0.0
25/07:30pm 22.0 18.4 8.2 41 7.3 W 17 26 9 14 1008.8 1008.7 0.0
25/07:00pm 22.6 18.3 8.0 39 7.7 W 20 32 11 17 1008.6 1008.5 0.0
25/06:30pm 22.7 19.8 8.0 39 7.7 W 13 20 7 11 1008.1 1008.0 0.0
25/06:00pm 23.2 20.3 8.1 38 8.0 W 13 19 7 10 1007.5 1007.4 0.0
25/05:30pm 24.3 19.6 7.9 35 8.7 W 22 43 12 23 1006.8 1006.7 0.0
25/05:00pm 24.6 20.8 9.7 39 8.2 W 20 37 11 20 1006.2 1006.1 0.0
25/04:30pm 25.5 20.6 10.1 38 8.5 W 26 39 14 21 1005.6 1005.5 0.0
25/04:00pm 26.2 23.1 11.5 40 8.4 W 19 30 10 16 1005.3 1005.2 0.0
25/03:30pm 24.8 21.4 11.4 43 7.6 WSW 20 28 11 15 1005.3 1005.2 0.0
25/03:00pm 26.5 22.9 11.8 40 8.5 W 22 35 12 19 1005.1 1005.0 0.0
25/02:30pm 26.1 22.0 11.5 40 8.3 W 24 43 13 23 1005.5 1005.4 0.0
25/02:00pm 24.9 22.5 12.8 47 7.0 WSW 17 24 9 13 1005.7 1005.6 0.0
25/01:30pm 25.4 23.2 13.3 47 7.1 SW 17 32 9 17 1005.6 1005.5 0.0
25/01:00pm 25.2 24.8 14.0 49 6.6 WSW 9 15 5 8 1006.0 1005.9 0.0
25/12:30pm 24.2 22.2 12.8 49 6.6 W 15 22 8 12 1006.4 1006.3 0.0
25/12:00pm 25.0 23.8 13.9 50 6.6 NW 13 20 7 11 1006.7 1006.6 0.0
25/11:30am 23.6 23.2 12.9 51 6.2 WNW 7 11 4 6 1007.3 1007.2 0.0
25/11:00am 23.0 23.0 14.3 58 5.1 NNW 7 11 4 6 1007.7 1007.6 0.0
25/10:30am 21.9 22.0 13.8 60 4.7 NNW 6 9 3 5 1007.9 1007.8 0.0
25/10:00am 20.3 20.6 13.3 64 4.0 N 4 7 2 4 1008.5 1008.4 0.0
25/09:30am 18.4 19.1 13.5 73 2.8 WNW 2 4 1 2 1009.4 1009.3 0.0
25/09:00am 17.2 18.2 13.3 78 2.2 CALM 0 0 0 0 1009.2 1009.1 0.0
25/08:30am 15.7 16.8 13.4 86 1.3 CALM 0 2 0 1 1009.6 1009.5 0.0
25/08:00am 14.3 15.2 13.0 92 0.7 CALM 0 0 0 0 1010.1 1010.0 0.0
25/07:30am 13.4 14.3 12.8 96 0.3 CALM 0 4 0 2 1010.1 1010.0 0.0
25/07:00am 12.4 12.6 11.9 97 0.3 SW 2 4 1 2 1009.8 1009.7 0.0
25/06:30am 11.7 12.1 11.2 97 0.3 CALM 0 0 0 0 1009.8 1009.7 0.0
25/06:00am 11.3 11.3 11.1 99 0.1 SSE 2 4 1 2 1009.9 1009.8 0.0
25/05:30am 10.8 11.0 10.6 99 0.1 CALM 0 4 0 2 1009.7 1009.6 0.0
25/05:00am 9.8 9.7 9.5 98 0.1 CALM 0 0 0 0 1009.5 1009.4 0.0
25/04:30am 9.9 9.8 9.4 97 0.2 CALM 0 0 0 0 1009.1 1009.0 0.0
25/04:00am 10.1 9.6 9.3 95 0.4 SW 2 4 1 2 1008.9 1008.8 0.0
25/03:30am 10.7 10.7 9.8 94 0.5 CALM 0 0 0 0 1008.8 1008.7 0.0
25/03:00am 11.6 11.5 10.8 95 0.4 E 2 6 1 3 1008.8 1008.7 0.0
25/02:30am 11.6 11.9 10.8 95 0.4 CALM 0 0 0 0 1009.1 1009.0 0.0
25/02:00am 11.7 12.0 10.9 95 0.4 CALM 0 0 0 0 1009.2 1009.1 0.0
25/01:30am 11.7 11.9 10.4 92 0.7 CALM 0 0 0 0 1009.6 1009.5 0.0
25/01:00am 12.6 12.6 11.3 92 0.7 SSE 2 4 1 2 1009.8 1009.7 0.0
25/12:30am 12.4 12.1 11.5 94 0.5 SSE 4 6 2 3 1010.1 1010.0 0.0
25/12:00am 11.8 12.0 10.5 92 0.7 CALM 0 0 0 0 1010.1 1010.0 0.0
 
Date/Time
EST
Temp
°C
App
Temp
°C
Dew
Point
°C
Rel
Hum
%
Delta-T
°C
Wind Press
QNH
hPa
Press
MSL
hPa
Rain since
9am
mm
Dir  Spd
km/h
Gust
km/h
Spd
kts
Gust
kts
24/11:30pm 11.9 11.9 11.1 95 0.4 SSE 2 4 1 2 1010.3 1010.2 0.0
24/11:00pm 11.6 11.7 10.3 92 0.7 CALM 0 0 0 0 1010.5 1010.4 0.0
24/10:30pm 12.4 12.7 11.0 91 0.7 CALM 0 0 0 0 1010.6 1010.5 0.0
24/10:00pm 13.9 14.6 12.3 90 0.9 CALM 0 0 0 0 1010.7 1010.6 0.0
24/09:30pm 14.3 14.8 11.5 83 1.5 CALM 0 0 0 0 1010.6 1010.5 0.0
24/09:00pm 14.4 14.7 10.8 79 1.9 CALM 0 0 0 0 1010.7 1010.6 0.0
24/08:30pm 15.9 16.1 10.4 70 2.9 CALM 0 0 0 0 1010.8 1010.7 0.0
24/08:00pm 17.2 17.0 10.6 65 3.5 NE 2 6 1 3 1010.9 1010.8 0.0
24/07:30pm 18.6 17.9 11.4 63 3.9 NNE 6 7 3 4 1010.7 1010.6 0.0
24/07:00pm 18.9 18.1 11.7 63 4.0 NNE 7 11 4 6 1010.2 1010.1 0.0
24/06:30pm 19.4 19.2 11.9 62 4.2 N 4 6 2 3 1009.7 1009.6 0.0
24/06:00pm 20.6 20.4 11.8 57 4.9 NE 4 9 2 5 1009.1 1009.0 0.0
24/05:30pm 21.8 21.0 11.8 53 5.6 ENE 7 9 4 5 1008.6 1008.5 0.0
24/05:00pm 23.3 22.6 12.0 49 6.4 NE 7 17 4 9 1008.1 1008.0 0.0
24/04:30pm 24.9 24.4 12.5 46 7.1 NE 7 13 4 7 1007.9 1007.8 0.0
24/04:00pm 25.5 24.3 11.7 42 7.9 NNE 9 17 5 9 1007.7 1007.6 0.0
24/03:30pm 25.9 25.0 11.3 40 8.3 NNW 7 17 4 9 1007.8 1007.7 0.0
24/03:00pm 25.9 25.1 11.6 40 8.2 NNW 7 13 4 7 1007.9 1007.8 0.0
24/02:30pm 26.1 25.4 11.5 40 8.3 N 6 11 3 6 1008.2 1008.1 0.0
24/02:00pm 24.9 24.3 11.8 44 7.5 WNW 6 11 3 6 1008.5 1008.4 0.0
24/01:30pm 25.7 24.9 11.1 40 8.2 WNW 6 11 3 6 1008.9 1008.8 0.0
24/01:00pm 25.1 24.1 10.9 41 8.0 NW 7 13 4 7 1009.4 1009.3 0.0
24/12:30pm 24.3 23.2 11.9 45 7.1 WNW 9 13 5 7 1009.8 1009.7 0.0
24/12:00pm 23.8 23.3 12.1 48 6.7 WNW 6 11 3 6 1010.3 1010.2 0.0
24/11:30am 23.4 22.2 11.5 47 6.7 NW 9 15 5 8 1010.9 1010.8 0.0
24/11:00am 23.3 23.2 13.2 53 5.9 NNE 6 13 3 7 1011.4 1011.3 0.0
24/10:30am 22.5 22.7 14.1 59 4.9 NW 6 13 3 7 1012.0 1011.9 0.0
24/10:00am 21.4 21.6 13.1 59 4.8 WNW 4 7 2 4 1012.4 1012.3 0.0
24/09:30am 20.2 20.3 12.7 62 4.2 WNW 4 6 2 3 1012.9 1012.8 0.0
24/09:00am 18.8 19.1 12.3 66 3.6 NW 2 6 1 3 1013.1 1013.0 0.0
24/08:30am 16.6 17.1 12.8 78 2.1 NW 2 4 1 2 1013.3 1013.2 0.0
24/08:00am 14.7 14.7 12.4 86 1.3 W 4 6 2 3 1013.4 1013.3 0.0
24/07:30am 13.0 12.6 11.2 89 1.0 W 4 6 2 3 1013.2 1013.1 0.0
24/07:00am 11.6 11.9 11.0 96 0.3 CALM 0 0 0 0 1013.0 1012.9 0.0
24/06:30am 9.4 9.2 9.1 98 0.1 CALM 0 0 0 0 1012.8 1012.7 0.0
24/06:00am 9.2 8.6 9.1 99 0.0 E 2 2 1 1 1012.5 1012.4 0.0
24/05:30am 8.2 7.8 8.1 99 0.0 CALM 0 0 0 0 1012.2 1012.1 0.0
24/05:00am 8.0 7.5 7.9 99 0.0 CALM 0 0 0 0 1011.7 1011.6 0.0
24/04:30am 8.1 7.6 7.8 98 0.1 CALM 0 0 0 0 1011.2 1011.1 0.0
24/04:00am 8.9 8.3 8.8 99 0.0 ESE 2 4 1 2 1010.9 1010.8 0.0
24/03:30am 8.6 7.8 8.3 98 0.1 SW 2 4 1 2 1010.8 1010.7 0.0
24/03:00am 8.5 8.0 7.9 96 0.3 CALM 0 4 0 2 1010.8 1010.7 0.0
24/02:30am 9.3 9.0 8.8 97 0.2 CALM 0 0 0 0 1011.1 1011.0 0.0
24/02:00am 9.9 9.8 9.6 98 0.2 CALM 0 0 0 0 1011.3 1011.2 0.0
24/01:30am 10.1 10.1 9.8 98 0.2 CALM 0 0 0 0 1011.5 1011.4 0.0
24/01:00am 9.5 9.0 7.9 90 0.8 CALM 0 4 0 2 1011.5 1011.4 0.0
24/12:30am 10.9 10.9 9.7 92 0.6 CALM 0 2 0 1 1011.3 1011.2 0.0
24/12:00am 11.7 11.3 11.1 96 0.3 ESE 4 4 2 2 1011.4 1011.3 0.0
 
Date/Time
EST
Temp
°C
App
Temp
°C
Dew
Point
°C
Rel
Hum
%
Delta-T
°C
Wind Press
QNH
hPa
Press
MSL
hPa
Rain since
9am
mm
Dir  Spd
km/h
Gust
km/h
Spd
kts
Gust
kts
23/11:30pm 10.4 10.3 9.5 94 0.5 CALM 0 0 0 0 1011.5 1011.4 0.0
23/11:00pm 11.1 11.0 9.4 89 0.9 CALM 0 0 0 0 1011.5 1011.4 0.0
23/10:30pm 11.6 11.4 9.2 85 1.2 CALM 0 0 0 0 1011.6 1011.5 0.0
23/10:00pm 13.8 12.9 10.8 82 1.6 ENE 6 7 3 4 1011.5 1011.4 0.0
23/09:30pm 14.2 14.6 11.4 83 1.5 CALM 0 0 0 0 1011.6 1011.5 0.0
23/09:00pm 14.3 14.6 10.9 80 1.8 CALM 0 0 0 0 1011.7 1011.6 0.0
23/08:30pm 14.9 15.1 10.5 75 2.3 CALM 0 2 0 1 1011.6 1011.5 0.0
23/08:00pm 16.3 15.8 10.6 69 3.0 N 4 7 2 4 1011.2 1011.1 0.0
23/07:30pm 18.1 17.3 11.0 63 3.8 NE 6 7 3 4 1010.9 1010.8 0.0
23/07:00pm 18.8 18.0 10.9 60 4.3 ENE 6 7 3 4 1010.4 1010.3 0.0
23/06:30pm 19.9 19.1 10.9 56 4.9 N 6 9 3 5 1009.9 1009.8 0.0
23/06:00pm 20.9 20.2 10.1 50 5.9 NNW 4 7 2 4 1009.5 1009.4 0.0
23/05:30pm 22.5 21.6 10.6 47 6.6 NW 6 11 3 6 1009.0 1008.9 0.0
23/05:00pm 23.6 22.4 10.3 43 7.3 NW 7 13 4 7 1008.5 1008.4 0.0
23/04:30pm 24.6 22.6 10.1 40 8.0 WNW 11 19 6 10 1008.1 1008.0 0.0
23/04:00pm 24.9 23.2 10.0 39 8.2 WNW 9 17 5 9 1008.0 1007.9 0.0
23/03:30pm 24.7 22.6 9.8 39 8.2 WNW 11 19 6 10 1008.0 1007.9 0.0
23/03:00pm 25.2 24.0 10.3 39 8.3 WNW 7 20 4 11 1008.0 1007.9 0.0
23/02:30pm 24.9 23.1 10.8 41 7.9 WSW 11 19 6 10 1008.2 1008.1 0.0
23/02:00pm 24.6 22.5 9.7 39 8.2 W 11 19 6 10 1008.4 1008.3 0.0
23/01:30pm 23.9 21.6 9.1 39 8.0 W 11 20 6 11 1008.7 1008.6 0.0
23/01:00pm 23.8 22.3 8.6 38 8.2 NNW 6 13 3 7 1009.0 1008.9 0.0
23/12:30pm 23.6 22.2 8.8 39 7.9 N 6 15 3 8 1009.4 1009.3 0.0
23/12:00pm 23.0 21.8 9.4 42 7.4 N 6 9 3 5 1009.9 1009.8 0.0
23/11:30am 22.4 21.5 9.2 43 7.1 NNW 4 9 2 5 1010.4 1010.3 0.0
23/11:00am 21.4 19.9 8.3 43 6.9 NE 6 9 3 5 1010.7 1010.6 0.0
23/10:30am 20.9 20.1 8.2 44 6.6 NE 2 6 1 3 1011.2 1011.1 0.0
23/10:00am 20.0 18.9 8.4 47 6.1 W 4 9 2 5 1011.6 1011.5 0.0
23/09:30am 18.8 17.6 7.9 49 5.6 WNW 4 7 2 4 1012.0 1011.9 0.0
23/09:00am 17.9 16.8 6.7 48 5.6 NW 2 6 1 3 1012.1 1012.0 0.0
23/08:30am 16.4 15.7 8.6 60 4.0 WNW 2 6 1 3 1012.2 1012.1 0.0
23/08:00am 14.5 14.3 9.1 70 2.8 CALM 0 0 0 0 1012.0 1011.9 0.0
23/07:30am 12.6 12.5 9.6 82 1.5 CALM 0 2 0 1 1012.0 1011.9 0.0
23/07:00am 12.1 12.1 9.8 86 1.2 CALM 0 0 0 0 1011.8 1011.7 0.0
23/06:30am 8.2 7.8 8.1 99 0.0 CALM 0 0 0 0 1011.6 1011.5 0.0
23/06:00am 6.1 5.2 6.0 99 0.0 CALM 0 0 0 0 1011.3 1011.2 0.0
23/05:30am 5.7 4.6 5.1 96 0.3 CALM 0 0 0 0 1011.0 1010.9 0.0
23/05:00am 7.3 6.7 7.2 99 0.0 CALM 0 0 0 0 1010.9 1010.8 0.0
23/04:30am 6.0 4.9 5.0 93 0.4 CALM 0 0 0 0 1010.7 1010.6 0.0
23/04:00am 7.1 6.2 6.2 94 0.4 CALM 0 0 0 0 1010.6 1010.5 0.0
23/03:30am 7.4 6.5 6.2 92 0.5 CALM 0 2 0 1 1010.7 1010.6 0.0
23/03:00am 8.1 7.0 7.0 93 0.5 E 2 2 1 1 1010.8 1010.7 0.0
23/02:30am 8.6 7.2 7.2 91 0.7 ESE 4 4 2 2 1011.0 1010.9 0.0
23/02:00am 8.2 7.4 6.7 90 0.7 CALM 0 6 0 3 1011.2 1011.1 0.0
23/01:30am 9.2 8.7 7.8 91 0.7 CALM 0 0 0 0 1011.3 1011.2 0.0
23/01:00am 10.2 9.4 8.1 87 1.0 E 2 4 1 2 1011.5 1011.4 0.0
23/12:30am 11.2 10.0 8.1 81 1.5 E 4 4 2 2 1011.6 1011.5 0.0
23/12:00am 13.0 12.1 7.9 71 2.5 SW 2 6 1 3 1012.0 1011.9 0.0
 
Date/Time
EST
Temp
°C
App
Temp
°C
Dew
Point
°C
Rel
Hum
%
Delta-T
°C
Wind Press
QNH
hPa
Press
MSL
hPa
Rain since
9am
mm
Dir  Spd
km/h
Gust
km/h
Spd
kts
Gust
kts
22/11:30pm 13.7 12.1 8.1 69 2.8 SW 6 9 3 5 1012.0 1011.9 0.0
22/11:00pm 14.0 12.3 8.2 68 2.9 WSW 7 9 4 5 1012.1 1012.0 0.0
22/10:30pm 12.0 10.4 7.9 76 2.0 W 6 9 3 5 1012.3 1012.2 0.0

Latest Capital City Observations: Canberra | Sydney | Melbourne | Brisbane | Adelaide | Perth | Hobart | Darwin

Other Formats:

Comma delimited format used in spreadsheet applications
http://www.bom.gov.au/fwo/IDQ60901/IDQ60901.95575.axf

JavaScript Object Notation format (JSON) in row-major order
http://www.bom.gov.au/fwo/IDQ60901/IDQ60901.95575.json